Data for 01/26/2016

Time Sea-Level Adjusted Pressure Absolute Pressure Temperature Relative Humidity Dew Point   
(mb) (inHg) (mb) (inHg) (C) (F) (%) (C) (F)
00:05 1024 30.24 853 25.19 -6.8 19.7 61 -13.1 8.4
00:10 1024 30.24 853 25.19 -6.6 20.1 63 -12.6 9.4
00:15 1023 30.21 853 25.19 -6.4 20.5 63 -12.4 9.7
00:20 1023 30.21 853 25.19 -6.4 20.6 64 -12.1 10.2
00:25 1023 30.21 853 25.19 -6.4 20.5 63 -12.2 10
00:30 1023 30.21 853 25.19 -6.3 20.6 63 -12.3 9.9
00:35 1024 30.24 853 25.19 -6.5 20.3 62 -12.5 9.4
00:40 1024 30.24 853 25.19 -6.7 19.9 62 -12.7 9.1
00:45 1024 30.24 853 25.19 -6.8 19.7 65 -12.4 9.7
00:50 1024 30.24 853 25.19 -6.4 20.5 63 -12.3 9.8
00:55 1024 30.24 853 25.19 -6.3 20.7 62 -12.5 9.6
01:00 1024 30.24 853 25.19 -6.5 20.4 62 -12.5 9.5
01:05 1024 30.24 853 25.19 -6.6 20.1 63 -12.6 9.3
01:10 1024 30.24 853 25.19 -7 19.5 64 -12.7 9.1
01:15 1024 30.24 853 25.19 -7.1 19.2 64 -12.8 9
01:20 1024 30.24 853 25.19 -7.1 19.2 64 -12.8 9
01:25 1024 30.24 853 25.19 -7.1 19.2 65 -12.7 9.1
01:30 1024 30.24 853 25.19 -7 19.3 63 -13 8.6
01:35 1024 30.24 853 25.19 -7.1 19.3 63 -13 8.6
01:40 1024 30.24 853 25.19 -7.2 19.1 64 -12.9 8.8
01:45 1024 30.24 853 25.19 -7.5 18.5 65 -13 8.5
01:50 1024 30.24 853 25.19 -7.6 18.3 65 -13 8.5
01:55 1024 30.24 853 25.19 -7.6 18.3 66 -13 8.6
02:00 1024 30.24 853 25.19 -7.6 18.3 67 -12.7 9.1
02:05 1024 30.24 853 25.19 -7.7 18.1 67 -12.8 9
02:10 1024 30.24 853 25.19 -7.8 17.9 67 -13 8.6
02:15 1024 30.24 853 25.19 -7.4 18.6 64 -13 8.5
02:20 1024 30.24 853 25.19 -7.3 18.9 65 -12.8 8.9
02:25 1024 30.24 853 25.19 -7.5 18.6 66 -12.8 8.9
02:30 1024 30.24 853 25.19 -7.7 18.2 67 -12.7 9.1
02:35 1024 30.24 853 25.19 -8.1 17.4 70 -12.7 9.2
02:40 1024 30.24 853 25.19 -8.1 17.4 69 -12.8 8.9
02:45 1024 30.24 853 25.19 -8 17.6 69 -12.8 9
02:50 1024 30.24 853 25.19 -8 17.6 69 -12.8 8.9
02:55 1024 30.24 853 25.19 -8.2 17.2 69 -13 8.6
03:00 1024 30.24 854 25.22 -8.1 17.4 68 -13 8.5
03:05 1024 30.24 854 25.22 -8 17.6 67 -13 8.6
03:10 1024 30.24 854 25.22 -8 17.6 68 -12.9 8.7
03:15 1025 30.27 854 25.22 -8 17.6 68 -12.9 8.7
03:20 1025 30.27 854 25.22 -7.9 17.8 67 -13 8.6
03:25 1025 30.27 854 25.22 -7.9 17.9 66 -13.1 8.4
03:30 1025 30.27 854 25.22 -8.1 17.5 67 -13.2 8.3
03:35 1025 30.27 854 25.22 -8.1 17.4 67 -13.2 8.2
03:40 1025 30.27 854 25.22 -7.9 17.7 65 -13.5 7.7
03:45 1025 30.27 854 25.22 -7.9 17.9 64 -13.5 7.7
03:50 1025 30.27 854 25.22 -7.9 17.7 64 -13.6 7.6
03:55 1025 30.27 854 25.22 -7.8 18 64 -13.5 7.7
04:00 1025 30.27 854 25.22 -8.3 17 68 -13.2 8.2
04:05 1025 30.27 854 25.22 -8.9 16.1 70 -13.3 8.1
04:10 1025 30.27 854 25.22 -8.7 16.3 68 -13.6 7.5
04:15 1025 30.27 854 25.22 -9.1 15.6 70 -13.7 7.3
04:20 1025 30.27 854 25.22 -9.8 14.4 72 -14 6.9
04:25 1025 30.27 854 25.22 -9.9 14.2 71 -14.1 6.6
04:30 1025 30.27 854 25.22 -8.9 16 67 -13.9 6.9
04:35 1025 30.27 854 25.22 -8.8 16.2 67 -13.9 7.1
04:40 1025 30.27 854 25.22 -8.5 16.7 64 -14.1 6.6
04:45 1025 30.27 854 25.22 -7.9 17.7 62 -14 6.9
04:50 1025 30.27 854 25.22 -7.7 18.1 62 -13.7 7.3
04:55 1025 30.27 854 25.22 -7.3 18.8 61 -13.6 7.5
05:00 1025 30.27 854 25.22 -7.1 19.2 60 -13.6 7.6
05:05 1025 30.27 854 25.22 -7.1 19.3 59 -13.7 7.3
05:10 1025 30.27 854 25.22 -7.1 19.3 60 -13.7 7.4
05:15 1025 30.27 854 25.22 -7.3 18.9 61 -13.7 7.4
05:20 1025 30.27 854 25.22 -8.2 17.2 65 -13.7 7.3
05:25 1025 30.27 854 25.22 -8.7 16.4 66 -14 6.8
05:30 1025 30.27 854 25.22 -8.7 16.3 69 -13.5 7.7
05:35 1025 30.27 854 25.22 -8.8 16.2 70 -13.3 8.1
05:40 1025 30.27 854 25.22 -8.6 16.5 70 -13.2 8.3
05:45 1024 30.24 854 25.22 -8.8 16.2 70 -13.3 8
05:50 1024 30.24 854 25.22 -9.1 15.7 71 -13.4 7.8
05:55 1024 30.24 854 25.22 -9 15.7 70 -13.6 7.5
06:00 1024 30.24 854 25.22 -8.8 16.2 69 -13.5 7.7
06:05 1024 30.24 854 25.22 -8.7 16.4 69 -13.4 7.9
06:10 1024 30.24 854 25.22 -8.5 16.7 69 -13.2 8.3
06:15 1024 30.24 854 25.22 -8.4 17 69 -13.1 8.4
06:20 1024 30.24 854 25.22 -8.5 16.6 70 -13.1 8.4
06:25 1024 30.24 854 25.22 -8.4 17 69 -13.1 8.4
06:30 1025 30.27 854 25.22 -8.6 16.5 69 -13.4 8
06:35 1025 30.27 854 25.22 -8.5 16.7 69 -13.3 8.1
06:40 1025 30.27 854 25.22 -8.6 16.4 71 -13.1 8.5
06:45 1025 30.27 854 25.22 -8.8 16.1 70 -13.3 8.1
06:50 1025 30.27 854 25.22 -9.1 15.6 72 -13.3 8
06:55 1025 30.27 854 25.22 -8.8 16.2 71 -13.1 8.4
07:00 1025 30.27 854 25.22 -8.4 16.9 68 -13.4 7.9
07:05 1025 30.27 854 25.22 -8.4 17 67 -13.4 7.9
07:10 1025 30.27 854 25.22 -8.1 17.3 68 -13.1 8.4
07:15 1025 30.27 854 25.22 -8.2 17.2 67 -13.3 8.1
07:20 1025 30.27 854 25.22 -8.1 17.4 66 -13.4 7.9
07:25 1025 30.27 854 25.22 -8.1 17.4 66 -13.3 8
07:30 1025 30.27 854 25.22 -8.8 16.3 70 -13.3 8
07:35 1025 30.27 854 25.22 -9 15.9 69 -13.6 7.5
07:40 1025 30.27 854 25.22 -8.5 16.7 67 -13.6 7.6
07:45 1025 30.27 854 25.22 -8.5 16.7 67 -13.5 7.7
07:50 1025 30.27 854 25.22 -8.3 17 66 -13.6 7.5
07:55 1025 30.27 854 25.22 -8.1 17.4 65 -13.5 7.6
08:00 1025 30.27 854 25.22 -7.7 18.1 63 -13.6 7.5
08:05 1025 30.27 854 25.22 -7.4 18.7 62 -13.6 7.6
08:10 1025 30.27 854 25.22 -7.3 18.8 62 -13.4 7.8
08:15 1025 30.27 854 25.22 -7.4 18.6 62 -13.5 7.7
08:20 1025 30.27 854 25.22 -7.6 18.2 62 -13.7 7.4
08:25 1025 30.27 854 25.22 -7.5 18.6 62 -13.6 7.5
08:30 1025 30.27 854 25.22 -7.3 18.9 62 -13.5 7.7
08:35 1025 30.27 854 25.22 -7.4 18.6 62 -13.4 7.8
08:40 1025 30.27 854 25.22 -7.7 18.1 64 -13.4 7.8
08:45 1025 30.27 854 25.22 -7.8 17.9 63 -13.6 7.5
08:50 1025 30.27 854 25.22 -7.4 18.6 62 -13.5 7.7
08:55 1025 30.27 855 25.25 -7.3 18.8 62 -13.4 7.9
09:00 1025 30.27 855 25.25 -8.2 17.2 66 -13.5 7.7
09:05 1025 30.27 855 25.25 -8.4 16.9 66 -13.6 7.5
09:10 1025 30.27 855 25.25 -8.2 17.3 65 -13.6 7.6
09:15 1025 30.27 855 25.25 -8.2 17.3 66 -13.4 7.8
09:20 1026 30.3 855 25.25 -7.8 18 64 -13.5 7.7
09:25 1025 30.27 855 25.25 -7.5 18.6 63 -13.3 8
09:30 1025 30.27 855 25.25 -7.8 18 65 -13.2 8.2
09:35 1026 30.3 855 25.25 -8.3 17.1 66 -13.6 7.6
09:40 1026 30.3 855 25.25 -8.1 17.5 66 -13.4 8
09:45 1026 30.3 855 25.25 -7.5 18.4 63 -13.4 7.8
09:50 1026 30.3 855 25.25 -7.7 18.1 65 -13.2 8.2
09:55 1026 30.3 855 25.25 -7.9 17.9 65 -13.3 8.1
10:00 1026 30.3 855 25.25 -7.6 18.4 64 -13.2 8.3
10:05 1026 30.3 855 25.25 -7.5 18.4 65 -12.9 8.7
10:10 1026 30.3 855 25.25 -7.7 18.2 66 -13 8.5
10:15 1026 30.3 855 25.25 -7.7 18.2 66 -13.1 8.5
10:20 1026 30.3 855 25.25 -7.6 18.3 65 -13.2 8.2
10:25 1026 30.3 855 25.25 -7 19.4 62 -13.1 8.4
10:30 1026 30.3 855 25.25 -7 19.5 62 -13.1 8.4
10:35 1026 30.3 855 25.25 -6.8 19.7 62 -13 8.6
10:40 1026 30.3 855 25.25 -6.4 20.4 59 -13.3 8.1
10:45 1026 30.3 855 25.25 -6.2 20.8 58 -13.1 8.4
10:50 1026 30.3 855 25.25 -5.5 22 56 -13 8.6
10:55 1026 30.3 855 25.25 -4.4 24.1 53 -12.5 9.5
11:00 1026 30.3 855 25.25 -3.7 25.3 50 -12.7 9.1
11:05 1026 30.3 855 25.25 -3 26.5 49 -12.3 9.9
11:10 1026 30.3 855 25.25 -2.6 27.4 48 -12.2 10
11:15 1026 30.3 855 25.25 -2.6 27.4 49 -11.8 10.8
11:20 1026 30.3 855 25.25 -2.3 27.9 48 -11.9 10.6
11:25 1026 30.3 855 25.25 -2.6 27.4 49 -11.8 10.8
11:30 1026 30.3 855 25.25 -3 26.7 49 -12.1 10.1
11:35 1026 30.3 855 25.25 -2.4 27.7 48 -11.9 10.6
11:40 1026 30.3 855 25.25 -1.9 28.6 46 -12.1 10.2
11:45 1026 30.3 856 25.28 -1.7 29 47 -11.6 11.1
11:50 1026 30.3 856 25.28 -1.3 29.7 45 -11.7 10.9
11:55 1026 30.3 856 25.28 -0.9 30.3 45 -11.3 11.6
12:00 1026 30.3 855 25.25 -1.1 29.9 47 -11.1 12.1
12:05 1026 30.3 855 25.25 -0.7 30.8 45 -11.2 11.8
12:10 1026 30.3 855 25.25 -0.4 31.2 44 -11.2 11.8
12:15 1026 30.3 855 25.25 -0.4 31.2 43 -11.4 11.4
12:20 1026 30.3 856 25.28 0.3 32.6 41 -11.4 11.4
12:25 1026 30.3 856 25.28 0.5 32.9 40 -11.7 11
12:30 1026 30.3 856 25.28 0.2 32.3 42 -11.2 11.9
12:35 1026 30.3 856 25.28 0.1 32.1 41 -11.6 11.1
12:40 1026 30.3 856 25.28 0.4 32.7 41 -11.4 11.5
12:45 1026 30.3 855 25.25 0.3 32.6 43 -11 12.2
12:50 1026 30.3 855 25.25 0.6 33.2 40 -11.6 11.2
12:55 1026 30.3 856 25.28 1.2 34.2 39 -11.3 11.6
13:00 1026 30.3 855 25.25 1.3 34.4 39 -11.2 11.9
13:05 1026 30.3 855 25.25 1 33.9 39 -11.3 11.7
13:10 1026 30.3 855 25.25 1.1 33.9 38 -11.7 10.9
13:15 1026 30.3 855 25.25 0.7 33.3 40 -11.3 11.6
13:20 1026 30.3 855 25.25 0.6 33 41 -11.4 11.6
13:25 1026 30.3 855 25.25 0.7 33.3 40 -11.3 11.7
13:30 1026 30.3 855 25.25 0.8 33.5 40 -11.4 11.5
13:35 1026 30.3 855 25.25 1.4 34.5 39 -11.2 11.8
13:40 1026 30.3 855 25.25 1.4 34.5 39 -11 12.1
13:45 1026 30.3 855 25.25 1.4 34.5 40 -10.9 12.4
13:50 1026 30.3 855 25.25 1.5 34.6 39 -10.9 12.4
13:55 1026 30.3 855 25.25 1.8 35.2 39 -10.7 12.8
14:00 1026 30.3 855 25.25 2 35.7 39 -10.4 13.2
14:05 1026 30.3 855 25.25 1.7 35.1 38 -11 12.1
14:10 1026 30.3 855 25.25 2 35.5 39 -10.7 12.8
14:15 1025 30.27 855 25.25 2.4 36.2 37 -10.9 12.4
14:20 1025 30.27 855 25.25 2.4 36.3 37 -10.8 12.5
14:25 1025 30.27 855 25.25 2.4 36.4 38 -10.5 13.2
14:30 1025 30.27 855 25.25 2.1 35.8 38 -10.7 12.7
14:35 1025 30.27 855 25.25 1.4 34.5 40 -10.9 12.3
14:40 1025 30.27 855 25.25 1.5 34.6 41 -10.5 13.1
14:45 1025 30.27 855 25.25 1.8 35.3 39 -10.7 12.8
14:50 1025 30.27 854 25.22 2.3 36.1 37 -11.1 12
14:55 1025 30.27 854 25.22 2.7 36.8 38 -10.3 13.5
15:00 1025 30.27 854 25.22 2.9 37.3 36 -10.7 12.8
15:05 1025 30.27 854 25.22 3.1 37.5 35 -10.8 12.6
15:10 1025 30.27 855 25.25 3.1 37.6 36 -10.7 12.8
15:15 1025 30.27 855 25.25 3 37.3 36 -10.7 12.8
15:20 1026 30.3 855 25.25 3.1 37.6 37 -10.2 13.6
15:25 1025 30.27 855 25.25 2.7 36.9 36 -10.9 12.3
15:30 1026 30.3 855 25.25 2.6 36.7 37 -10.7 12.7
15:35 1025 30.27 855 25.25 2.3 36.1 38 -10.7 12.8
15:40 1025 30.27 855 25.25 2.3 36.1 38 -10.7 12.8
15:45 1025 30.27 855 25.25 1.9 35.4 40 -10.2 13.6
15:50 1025 30.27 855 25.25 2.1 35.7 38 -10.7 12.7
15:55 1025 30.27 855 25.25 2.2 35.9 41 -9.9 14.2
16:00 1025 30.27 854 25.22 2.5 36.5 40 -9.9 14.1
16:05 1025 30.27 854 25.22 3 37.4 40 -9.4 15
16:10 1025 30.27 854 25.22 3.1 37.5 38 -10.1 13.9
16:15 1025 30.27 854 25.22 3.2 37.8 37 -10.2 13.6
16:20 1025 30.27 854 25.22 3.8 38.8 35 -10.5 13.1
16:25 1025 30.27 854 25.22 4.2 39.5 37 -9.3 15.3
16:30 1025 30.27 854 25.22 4.1 39.4 35 -10.1 13.9
16:35 1025 30.27 854 25.22 4.5 40.1 34 -10.1 13.8
16:40 1025 30.27 854 25.22 4.8 40.6 33 -10.2 13.7
16:45 1025 30.27 854 25.22 4.6 40.3 33 -10.2 13.6
16:50 1025 30.27 854 25.22 4.7 40.4 33 -10.1 13.8
16:55 1025 30.27 854 25.22 5.1 41.1 33 -10 14
17:00 1025 30.27 854 25.22 5 41 33 -10.1 13.8
17:05 1025 30.27 854 25.22 4.9 40.9 36 -9 15.8
17:10 1025 30.27 854 25.22 4.3 39.7 39 -8.3 17
17:15 1025 30.27 854 25.22 3.9 39 39 -8.7 16.3
17:20 1025 30.27 854 25.22 3.9 39 41 -8.3 17
17:25 1025 30.27 854 25.22 3.9 39 43 -7.7 18.2
17:30 1025 30.27 854 25.22 3.9 39.1 42 -7.8 18
17:35 1025 30.27 854 25.22 3.8 38.8 42 -8.1 17.4
17:40 1025 30.27 854 25.22 3.3 38 42 -8.3 17.1
17:45 1025 30.27 854 25.22 2.6 36.7 43 -8.7 16.4
17:50 1025 30.27 854 25.22 2.3 36.1 44 -8.8 16.1
17:55 1025 30.27 854 25.22 2.2 35.9 44 -8.8 16.2
18:00 1025 30.27 854 25.22 1.9 35.4 44 -9.1 15.7
18:05 1025 30.27 854 25.22 1.9 35.4 45 -8.8 16.2
18:10 1025 30.27 854 25.22 1.8 35.3 48 -8.1 17.4
18:15 1025 30.27 854 25.22 1.7 35.1 46 -8.6 16.4
18:20 1025 30.27 854 25.22 1.9 35.3 45 -8.7 16.3
18:25 1025 30.27 854 25.22 1.8 35.3 48 -8.2 17.3
18:30 1025 30.27 854 25.22 1.6 35 49 -8 17.6
18:35 1025 30.27 854 25.22 1.6 34.9 50 -7.7 18.1
18:40 1025 30.27 854 25.22 1.5 34.7 51 -7.6 18.3
18:45 1025 30.27 854 25.22 1.2 34.2 52 -7.6 18.3
18:50 1025 30.27 854 25.22 0.9 33.6 53 -7.6 18.3
18:55 1025 30.27 854 25.22 0.6 33 54 -7.8 18
19:00 1025 30.27 854 25.22 0.2 32.4 55 -7.8 17.9
19:05 1025 30.27 854 25.22 0.1 32.2 56 -7.8 18
19:10 1025 30.27 854 25.22 -0 32 55 -7.9 17.8
19:15 1025 30.27 854 25.22 -0.3 31.5 57 -7.8 18
19:20 1025 30.27 854 25.22 -0.5 31.1 57 -7.9 17.8
19:25 1025 30.27 854 25.22 -0.7 30.8 55 -8.5 16.6
19:30 1025 30.27 854 25.22 -1.1 30.1 57 -8.5 16.7
19:35 1025 30.27 855 25.25 -1.6 29 56 -9.3 15.3
19:40 1025 30.27 855 25.25 -1.9 28.6 58 -9.1 15.6
19:45 1025 30.27 855 25.25 -1.9 28.6 56 -9.4 15
19:50 1025 30.27 854 25.22 -1.7 28.9 58 -9 15.8
19:55 1025 30.27 855 25.25 -1.9 28.6 60 -8.6 16.5
20:00 1025 30.27 855 25.25 -1.9 28.6 58 -9.2 15.5
20:05 1025 30.27 855 25.25 -1.8 28.7 54 -9.9 14.2
20:10 1026 30.3 855 25.25 -1.8 28.8 54 -9.9 14.2
20:15 1026 30.3 855 25.25 -1.7 28.9 54 -10 14
20:20 1026 30.3 855 25.25 -1.7 28.9 54 -9.8 14.4
20:25 1026 30.3 855 25.25 -1.7 28.9 54 -9.9 14.2
20:30 1026 30.3 855 25.25 -1.6 29.1 54 -9.7 14.5
20:35 1025 30.27 855 25.25 -1.8 28.8 55 -9.7 14.5
20:40 1025 30.27 855 25.25 -1.8 28.8 56 -9.4 15.1
20:45 1025 30.27 855 25.25 -1.6 29.2 57 -8.9 16
20:50 1025 30.27 855 25.25 -1.3 29.7 57 -8.7 16.3
20:55 1025 30.27 855 25.25 -1.6 29.2 58 -8.8 16.2
21:00 1025 30.27 855 25.25 -1.8 28.7 60 -8.5 16.6
21:05 1025 30.27 855 25.25 -2.2 28.1 63 -8.3 17
21:10 1025 30.27 855 25.25 -2.5 27.6 63 -8.5 16.6
21:15 1025 30.27 854 25.22 -2.2 28 62 -8.4 16.8
21:20 1025 30.27 854 25.22 -2.4 27.7 63 -8.5 16.7
21:25 1025 30.27 854 25.22 -1.9 28.5 61 -8.5 16.8
21:30 1025 30.27 854 25.22 -2.1 28.3 59 -9 15.8
21:35 1025 30.27 854 25.22 -1.6 29.2 58 -8.8 16.2
21:40 1025 30.27 854 25.22 -1.8 28.8 61 -8.4 16.9
21:45 1025 30.27 854 25.22 -2.1 28.1 61 -8.8 16.2
21:50 1025 30.27 854 25.22 -1.8 28.7 59 -8.9 16
21:55 1025 30.27 854 25.22 -1.7 28.9 59 -8.7 16.3
22:00 1025 30.27 854 25.22 -1.6 29.1 58 -8.8 16.2
22:05 1025 30.27 854 25.22 -1.8 28.7 60 -8.6 16.5
22:10 1025 30.27 854 25.22 -2 28.4 61 -8.5 16.6
22:15 1025 30.27 854 25.22 -2.1 28.2 61 -8.6 16.5
22:20 1025 30.27 854 25.22 -2 28.3 60 -8.7 16.4
22:25 1025 30.27 854 25.22 -1.5 29.3 59 -8.6 16.5
22:30 1025 30.27 854 25.22 -1.5 29.3 59 -8.6 16.6
22:35 1025 30.27 854 25.22 -1.4 29.5 58 -8.7 16.3
22:40 1025 30.27 854 25.22 -0.9 30.3 57 -8.4 16.9
22:45 1025 30.27 854 25.22 -0.8 30.6 58 -8.2 17.3
22:50 1025 30.27 854 25.22 -0.8 30.5 57 -8.2 17.2
22:55 1024 30.24 854 25.22 -0.8 30.6 56 -8.5 16.8
23:00 1024 30.24 854 25.22 -0.6 30.9 55 -8.4 16.8
23:05 1024 30.24 853 25.19 -0.5 31 56 -8.2 17.2
23:10 1024 30.24 853 25.19 -0.8 30.6 58 -8 17.6
23:15 1024 30.24 853 25.19 -0.8 30.6 58 -8 17.6
23:20 1024 30.24 853 25.19 -0.4 31.2 56 -8.1 17.5
23:25 1024 30.24 853 25.19 -0 32 55 -7.9 17.8
23:30 1024 30.24 853 25.19 0.2 32.3 60 -6.7 19.9
23:35 1024 30.24 854 25.22 0.1 32.2 60 -6.8 19.7
23:40 1024 30.24 854 25.22 0 32.1 57 -7.5 18.5
23:45 1024 30.24 854 25.22 -0.1 31.9 59 -7.2 19.1
23:50 1025 30.27 854 25.22 -0.3 31.4 60 -7.2 19
23:55 1025 30.27 854 25.22 -0.4 31.2 60 -7.2 19
24:00 1025 30.27 854 25.22 -0.4 31.3 58 -7.6 18.2